sensor_id;sensor_type;location;lat;lon;timestamp;pressure;altitude;pressure_sealevel;temperature;humidity
44697;BME280;57264;47.480;19.354;2023-09-08T00:01:18;99790.75;;;16.46;73.28
44697;BME280;57264;47.480;19.354;2023-09-08T00:03:43;99788.09;;;16.46;73.20
44697;BME280;57264;47.480;19.354;2023-09-08T00:06:08;99787.41;;;16.38;73.62
44697;BME280;57264;47.480;19.354;2023-09-08T00:08:34;99782.13;;;16.38;74.11
44697;BME280;57264;47.480;19.354;2023-09-08T00:10:59;99785.25;;;16.47;73.83
44697;BME280;57264;47.480;19.354;2023-09-08T00:13:25;99783.53;;;16.53;73.69
44697;BME280;57264;47.480;19.354;2023-09-08T00:15:50;99787.41;;;16.50;73.95
44697;BME280;57264;47.480;19.354;2023-09-08T00:18:16;99788.22;;;16.51;73.87
44697;BME280;57264;47.480;19.354;2023-09-08T00:20:41;99785.72;;;16.44;74.06
44697;BME280;57264;47.480;19.354;2023-09-08T00:23:09;99791.69;;;16.51;73.87
44697;BME280;57264;47.480;19.354;2023-09-08T00:25:35;99785.72;;;16.56;73.61
44697;BME280;57264;47.480;19.354;2023-09-08T00:28:01;99787.22;;;16.52;73.96
44697;BME280;57264;47.480;19.354;2023-09-08T00:30:26;99784.91;;;16.55;73.69
44697;BME280;57264;47.480;19.354;2023-09-08T00:32:51;99789.88;;;16.63;73.32
44697;BME280;57264;47.480;19.354;2023-09-08T00:35:17;99780.63;;;16.77;72.51
44697;BME280;57264;47.480;19.354;2023-09-08T00:37:42;99788.38;;;16.67;72.99
44697;BME280;57264;47.480;19.354;2023-09-08T00:40:07;99788.94;;;16.58;73.54
44697;BME280;57264;47.480;19.354;2023-09-08T00:42:36;99789.16;;;16.45;74.46
44697;BME280;57264;47.480;19.354;2023-09-08T00:45:02;99774.41;;;16.37;74.77
44697;BME280;57264;47.480;19.354;2023-09-08T00:47:27;99780.28;;;16.27;75.10
44697;BME280;57264;47.480;19.354;2023-09-08T00:49:53;99778.31;;;16.34;75.11
44697;BME280;57264;47.480;19.354;2023-09-08T00:52:18;99777.03;;;16.25;75.61
44697;BME280;57264;47.480;19.354;2023-09-08T00:54:43;99782.47;;;16.30;75.50
44697;BME280;57264;47.480;19.354;2023-09-08T00:57:09;99769.66;;;16.04;76.49
44697;BME280;57264;47.480;19.354;2023-09-08T00:59:35;99770.13;;;16.13;76.64
44697;BME280;57264;47.480;19.354;2023-09-08T01:02:04;99765.28;;;16.10;76.45
44697;BME280;57264;47.480;19.354;2023-09-08T01:04:30;99773.34;;;16.03;77.11
44697;BME280;57264;47.480;19.354;2023-09-08T01:06:55;99769.75;;;16.09;77.12
44697;BME280;57264;47.480;19.354;2023-09-08T01:09:21;99768.16;;;16.08;77.11
44697;BME280;57264;47.480;19.354;2023-09-08T01:11:47;99768.03;;;16.03;77.66
44697;BME280;57264;47.480;19.354;2023-09-08T01:14:12;99763.63;;;15.97;77.72
44697;BME280;57264;47.480;19.354;2023-09-08T01:16:41;99769.25;;;15.89;78.47
44697;BME280;57264;47.480;19.354;2023-09-08T01:19:08;99764.94;;;16.06;77.30
44697;BME280;57264;47.480;19.354;2023-09-08T01:27:03;99766.19;;;16.04;77.82
44697;BME280;57264;47.480;19.354;2023-09-08T01:29:31;99771.47;;;15.92;78.66
44697;BME280;57264;47.480;19.354;2023-09-08T01:31:57;99759.63;;;16.06;77.91
44697;BME280;57264;47.480;19.354;2023-09-08T01:34:23;99766.09;;;16.22;77.39
44697;BME280;57264;47.480;19.354;2023-09-08T01:36:49;99754.69;;;16.21;77.38
44697;BME280;57264;47.480;19.354;2023-09-08T01:39:14;99759.91;;;16.28;77.29
44697;BME280;57264;47.480;19.354;2023-09-08T01:41:39;99761.38;;;16.35;77.33
44697;BME280;57264;47.480;19.354;2023-09-08T01:44:05;99759.09;;;16.74;75.66
44697;BME280;57264;47.480;19.354;2023-09-08T01:46:33;99751.81;;;16.93;74.86
44697;BME280;57264;47.480;19.354;2023-09-08T01:48:59;99755.88;;;16.49;76.84
44697;BME280;57264;47.480;19.354;2023-09-08T01:51:24;99755.09;;;16.60;76.60
44697;BME280;57264;47.480;19.354;2023-09-08T01:53:50;99760.56;;;16.81;75.50
44697;BME280;57264;47.480;19.354;2023-09-08T01:56:15;99752.91;;;16.57;76.36
44697;BME280;57264;47.480;19.354;2023-09-08T01:58:40;99757.69;;;16.13;78.05
44697;BME280;57264;47.480;19.354;2023-09-08T02:01:06;99755.00;;;15.90;79.22
44697;BME280;57264;47.480;19.354;2023-09-08T02:03:32;99755.63;;;16.38;77.73
44697;BME280;57264;47.480;19.354;2023-09-08T02:05:57;99758.22;;;16.57;76.79
44697;BME280;57264;47.480;19.354;2023-09-08T02:08:22;99761.81;;;16.09;78.52
44697;BME280;57264;47.480;19.354;2023-09-08T02:10:48;99761.22;;;15.84;79.71
44697;BME280;57264;47.480;19.354;2023-09-08T02:13:13;99760.06;;;15.91;79.67
44697;BME280;57264;47.480;19.354;2023-09-08T02:15:38;99755.97;;;16.42;77.94
44697;BME280;57264;47.480;19.354;2023-09-08T02:18:05;99753.88;;;16.21;78.16
44697;BME280;57264;47.480;19.354;2023-09-08T02:20:30;99758.25;;;16.04;79.40
44697;BME280;57264;47.480;19.354;2023-09-08T02:22:56;99756.91;;;16.48;77.59
44697;BME280;57264;47.480;19.354;2023-09-08T02:25:23;99748.50;;;16.39;77.88
44697;BME280;57264;47.480;19.354;2023-09-08T02:27:48;99751.00;;;16.22;78.28
44697;BME280;57264;47.480;19.354;2023-09-08T02:30:13;99754.25;;;16.48;77.52
44697;BME280;57264;47.480;19.354;2023-09-08T02:32:39;99745.16;;;16.67;76.73
44697;BME280;57264;47.480;19.354;2023-09-08T02:35:08;99746.66;;;16.63;76.68
44697;BME280;57264;47.480;19.354;2023-09-08T02:37:33;99747.66;;;16.85;76.03
44697;BME280;57264;47.480;19.354;2023-09-08T02:39:59;99746.03;;;16.96;75.41
44697;BME280;57264;47.480;19.354;2023-09-08T02:42:24;99743.88;;;16.81;75.57
44697;BME280;57264;47.480;19.354;2023-09-08T02:44:49;99743.06;;;16.92;75.19
44697;BME280;57264;47.480;19.354;2023-09-08T02:47:15;99742.47;;;16.90;75.39
44697;BME280;57264;47.480;19.354;2023-09-08T02:49:40;99740.22;;;17.10;74.49
44697;BME280;57264;47.480;19.354;2023-09-08T02:52:05;99740.16;;;16.82;75.55
44697;BME280;57264;47.480;19.354;2023-09-08T02:54:31;99742.28;;;16.68;76.22
44697;BME280;57264;47.480;19.354;2023-09-08T02:56:56;99743.31;;;16.67;76.22
44697;BME280;57264;47.480;19.354;2023-09-08T02:59:22;99747.56;;;16.80;75.85
44697;BME280;57264;47.480;19.354;2023-09-08T03:01:47;99753.34;;;16.77;75.93
44697;BME280;57264;47.480;19.354;2023-09-08T03:04:12;99742.50;;;16.67;76.33
44697;BME280;57264;47.480;19.354;2023-09-08T03:06:38;99749.41;;;16.56;76.93
44697;BME280;57264;47.480;19.354;2023-09-08T03:09:03;99745.25;;;16.37;77.79
44697;BME280;57264;47.480;19.354;2023-09-08T03:11:28;99746.41;;;16.41;77.71
44697;BME280;57264;47.480;19.354;2023-09-08T03:13:54;99748.81;;;16.43;77.61
44697;BME280;57264;47.480;19.354;2023-09-08T03:16:20;99753.09;;;16.44;77.60
44697;BME280;57264;47.480;19.354;2023-09-08T03:18:45;99751.59;;;16.36;77.85
44697;BME280;57264;47.480;19.354;2023-09-08T03:21:13;99747.69;;;16.38;77.87
44697;BME280;57264;47.480;19.354;2023-09-08T03:23:39;99752.97;;;16.27;78.19
44697;BME280;57264;47.480;19.354;2023-09-08T03:26:05;99752.03;;;16.33;78.19
44697;BME280;57264;47.480;19.354;2023-09-08T03:28:31;99759.22;;;16.44;77.58
44697;BME280;57264;47.480;19.354;2023-09-08T03:30:57;99759.56;;;16.36;77.81
44697;BME280;57264;47.480;19.354;2023-09-08T03:33:22;99749.28;;;16.39;77.46
44697;BME280;57264;47.480;19.354;2023-09-08T03:35:48;99745.84;;;16.62;76.89
44697;BME280;57264;47.480;19.354;2023-09-08T03:38:13;99752.44;;;16.60;76.72
44697;BME280;57264;47.480;19.354;2023-09-08T03:40:39;99753.56;;;16.75;75.97
44697;BME280;57264;47.480;19.354;2023-09-08T03:43:04;99765.22;;;16.63;76.34
44697;BME280;57264;47.480;19.354;2023-09-08T03:45:29;99759.44;;;16.54;76.62
44697;BME280;57264;47.480;19.354;2023-09-08T03:47:55;99764.19;;;16.64;76.30
44697;BME280;57264;47.480;19.354;2023-09-08T03:50:20;99755.41;;;16.52;76.87
44697;BME280;57264;47.480;19.354;2023-09-08T03:52:46;99754.00;;;16.49;77.09
44697;BME280;57264;47.480;19.354;2023-09-08T03:55:11;99755.09;;;16.60;76.67
44697;BME280;57264;47.480;19.354;2023-09-08T03:57:36;99761.59;;;16.46;77.39
44697;BME280;57264;47.480;19.354;2023-09-08T04:00:05;99761.50;;;16.41;76.97
44697;BME280;57264;47.480;19.354;2023-09-08T04:02:32;99763.00;;;16.36;77.50
44697;BME280;57264;47.480;19.354;2023-09-08T04:04:58;99767.38;;;16.19;78.28
44697;BME280;57264;47.480;19.354;2023-09-08T04:07:24;99770.09;;;16.01;79.08
44697;BME280;57264;47.480;19.354;2023-09-08T04:09:49;99764.13;;;16.06;78.80
44697;BME280;57264;47.480;19.354;2023-09-08T04:12:15;99768.38;;;15.95;79.46
44697;BME280;57264;47.480;19.354;2023-09-08T04:14:40;99763.56;;;16.04;79.17
44697;BME280;57264;47.480;19.354;2023-09-08T04:17:06;99768.59;;;16.05;78.85
44697;BME280;57264;47.480;19.354;2023-09-08T04:19:34;99780.25;;;16.04;79.31
44697;BME280;57264;47.480;19.354;2023-09-08T04:22:03;99775.31;;;16.19;78.10
44697;BME280;57264;47.480;19.354;2023-09-08T04:24:28;99764.84;;;16.24;78.17
44697;BME280;57264;47.480;19.354;2023-09-08T04:26:54;99763.44;;;16.45;77.26
44697;BME280;57264;47.480;19.354;2023-09-08T04:29:19;99777.50;;;16.34;77.44
44697;BME280;57264;47.480;19.354;2023-09-08T04:31:45;99766.00;;;16.52;76.77
44697;BME280;57264;47.480;19.354;2023-09-08T04:34:10;99770.63;;;16.68;76.01
44697;BME280;57264;47.480;19.354;2023-09-08T04:36:41;99770.75;;;16.61;76.11
44697;BME280;57264;47.480;19.354;2023-09-08T04:39:07;99764.72;;;16.77;75.21
44697;BME280;57264;47.480;19.354;2023-09-08T04:41:36;99771.09;;;16.76;75.22
44697;BME280;57264;47.480;19.354;2023-09-08T04:44:01;99769.78;;;16.91;74.55
44697;BME280;57264;47.480;19.354;2023-09-08T04:46:27;99768.94;;;17.02;73.95
44697;BME280;57264;47.480;19.354;2023-09-08T04:48:52;99768.56;;;17.21;72.96
44697;BME280;57264;47.480;19.354;2023-09-08T04:51:17;99766.44;;;17.35;72.32
44697;BME280;57264;47.480;19.354;2023-09-08T04:53:43;99764.50;;;17.30;72.56
44697;BME280;57264;47.480;19.354;2023-09-08T04:56:08;99756.06;;;17.62;71.23
44697;BME280;57264;47.480;19.354;2023-09-08T04:58:33;99748.78;;;19.88;63.12
44697;BME280;57264;47.480;19.354;2023-09-08T05:00:59;99747.59;;;20.37;60.35
44697;BME280;57264;47.480;19.354;2023-09-08T05:03:24;99757.34;;;20.64;58.90
44697;BME280;57264;47.480;19.354;2023-09-08T05:05:51;99754.44;;;20.65;58.63
44697;BME280;57264;47.480;19.354;2023-09-08T05:08:16;99751.59;;;21.59;55.94
44697;BME280;57264;47.480;19.354;2023-09-08T05:10:43;99745.47;;;21.84;55.06
44697;BME280;57264;47.480;19.354;2023-09-08T05:13:09;99755.81;;;20.73;57.64
44697;BME280;57264;47.480;19.354;2023-09-08T05:15:34;99748.63;;;22.77;52.26
44697;BME280;57264;47.480;19.354;2023-09-08T05:17:59;99757.22;;;21.73;54.76
44697;BME280;57264;47.480;19.354;2023-09-08T05:20:25;99756.63;;;21.30;55.60
44697;BME280;57264;47.480;19.354;2023-09-08T05:22:51;99750.03;;;21.73;54.42
44697;BME280;57264;47.480;19.354;2023-09-08T05:25:16;99759.53;;;21.29;55.85
44697;BME280;57264;47.480;19.354;2023-09-08T05:27:41;99757.44;;;21.41;55.76
44697;BME280;57264;47.480;19.354;2023-09-08T05:30:07;99766.56;;;20.88;56.80
44697;BME280;57264;47.480;19.354;2023-09-08T05:32:33;99769.13;;;21.20;56.41
44697;BME280;57264;47.480;19.354;2023-09-08T05:34:58;99768.94;;;20.10;60.26
44697;BME280;57264;47.480;19.354;2023-09-08T05:37:24;99764.25;;;20.23;60.28
44697;BME280;57264;47.480;19.354;2023-09-08T05:39:49;99761.88;;;19.89;61.12
44697;BME280;57264;47.480;19.354;2023-09-08T05:42:14;99767.84;;;20.06;61.07
44697;BME280;57264;47.480;19.354;2023-09-08T05:44:40;99767.84;;;20.33;60.33
44697;BME280;57264;47.480;19.354;2023-09-08T05:47:05;99769.25;;;20.46;59.83
44697;BME280;57264;47.480;19.354;2023-09-08T05:49:31;99769.75;;;20.38;60.17
44697;BME280;57264;47.480;19.354;2023-09-08T05:51:56;99778.88;;;20.52;59.65
44697;BME280;57264;47.480;19.354;2023-09-08T05:54:24;99772.03;;;20.61;59.48
44697;BME280;57264;47.480;19.354;2023-09-08T05:56:50;99771.25;;;21.23;58.07
44697;BME280;57264;47.480;19.354;2023-09-08T05:59:15;99767.84;;;20.80;59.26
44697;BME280;57264;47.480;19.354;2023-09-08T06:01:41;99768.97;;;20.94;58.72
44697;BME280;57264;47.480;19.354;2023-09-08T06:04:06;99774.56;;;20.88;58.25
44697;BME280;57264;47.480;19.354;2023-09-08T06:06:32;99767.53;;;21.24;57.38
44697;BME280;57264;47.480;19.354;2023-09-08T06:08:57;99770.28;;;21.49;56.89
44697;BME280;57264;47.480;19.354;2023-09-08T06:11:23;99768.47;;;21.02;57.36
44697;BME280;57264;47.480;19.354;2023-09-08T06:13:48;99767.59;;;20.87;58.54
44697;BME280;57264;47.480;19.354;2023-09-08T06:16:14;99771.56;;;21.36;58.07
44697;BME280;57264;47.480;19.354;2023-09-08T06:18:39;99769.66;;;21.17;58.65
44697;BME280;57264;47.480;19.354;2023-09-08T06:21:09;99777.72;;;20.80;58.79
44697;BME280;57264;47.480;19.354;2023-09-08T06:23:35;99776.34;;;20.72;59.61
44697;BME280;57264;47.480;19.354;2023-09-08T06:26:00;99772.72;;;20.93;59.06
44697;BME280;57264;47.480;19.354;2023-09-08T06:28:27;99784.22;;;20.52;59.45
44697;BME280;57264;47.480;19.354;2023-09-08T06:30:52;99783.88;;;20.80;57.58
44697;BME280;57264;47.480;19.354;2023-09-08T06:33:18;99782.84;;;20.91;58.53
44697;BME280;57264;47.480;19.354;2023-09-08T06:35:43;99785.13;;;20.68;59.02
44697;BME280;57264;47.480;19.354;2023-09-08T06:38:09;99784.19;;;20.89;58.67
44697;BME280;57264;47.480;19.354;2023-09-08T06:40:34;99787.34;;;20.81;58.51
44697;BME280;57264;47.480;19.354;2023-09-08T06:43:00;99777.06;;;21.10;58.07
44697;BME280;57264;47.480;19.354;2023-09-08T06:45:25;99782.25;;;21.26;57.86
44697;BME280;57264;47.480;19.354;2023-09-08T06:47:51;99802.41;;;21.02;58.27
44697;BME280;57264;47.480;19.354;2023-09-08T06:50:23;99788.38;;;21.22;58.07
44697;BME280;57264;47.480;19.354;2023-09-08T06:52:51;99788.34;;;21.17;57.11
44697;BME280;57264;47.480;19.354;2023-09-08T06:55:17;99791.22;;;21.10;56.99
44697;BME280;57264;47.480;19.354;2023-09-08T06:57:43;99796.75;;;20.98;57.54
44697;BME280;57264;47.480;19.354;2023-09-08T07:00:08;99799.63;;;21.34;56.56
44697;BME280;57264;47.480;19.354;2023-09-08T07:02:36;99782.09;;;21.73;56.29
44697;BME280;57264;47.480;19.354;2023-09-08T07:05:02;99782.53;;;21.40;56.79
44697;BME280;57264;47.480;19.354;2023-09-08T07:07:32;99785.22;;;21.45;57.32
44697;BME280;57264;47.480;19.354;2023-09-08T07:09:58;99792.28;;;21.97;56.51
44697;BME280;57264;47.480;19.354;2023-09-08T07:12:23;99796.50;;;21.67;54.88
44697;BME280;57264;47.480;19.354;2023-09-08T07:14:49;99788.50;;;21.62;54.63
44697;BME280;57264;47.480;19.354;2023-09-08T07:17:14;99784.81;;;21.99;54.15
44697;BME280;57264;47.480;19.354;2023-09-08T07:19:39;99786.38;;;21.74;54.49
44697;BME280;57264;47.480;19.354;2023-09-08T07:22:05;99785.28;;;21.75;54.24
44697;BME280;57264;47.480;19.354;2023-09-08T07:24:31;99777.31;;;22.16;53.54
44697;BME280;57264;47.480;19.354;2023-09-08T07:26:56;99775.16;;;21.87;53.89
44697;BME280;57264;47.480;19.354;2023-09-08T07:29:22;99770.66;;;21.93;53.23
44697;BME280;57264;47.480;19.354;2023-09-08T07:31:48;99773.31;;;22.13;52.79
44697;BME280;57264;47.480;19.354;2023-09-08T07:34:14;99769.56;;;21.99;52.96
44697;BME280;57264;47.480;19.354;2023-09-08T07:36:40;99763.09;;;22.61;52.30
44697;BME280;57264;47.480;19.354;2023-09-08T07:39:06;99762.09;;;22.21;52.33
44697;BME280;57264;47.480;19.354;2023-09-08T07:41:31;99758.88;;;22.19;52.55
44697;BME280;57264;47.480;19.354;2023-09-08T07:43:56;99768.75;;;22.19;52.53
44697;BME280;57264;47.480;19.354;2023-09-08T07:46:22;99753.78;;;22.33;51.60
44697;BME280;57264;47.480;19.354;2023-09-08T07:48:47;99756.47;;;22.33;52.06
44697;BME280;57264;47.480;19.354;2023-09-08T07:51:13;99759.34;;;22.52;52.05
44697;BME280;57264;47.480;19.354;2023-09-08T07:53:40;99762.28;;;22.75;52.95
44697;BME280;57264;47.480;19.354;2023-09-08T07:56:07;99761.69;;;22.94;50.49
44697;BME280;57264;47.480;19.354;2023-09-08T07:58:33;99760.72;;;22.49;51.80
44697;BME280;57264;47.480;19.354;2023-09-08T08:01:01;99757.34;;;23.08;51.52
44697;BME280;57264;47.480;19.354;2023-09-08T08:03:27;99764.88;;;23.01;51.30
44697;BME280;57264;47.480;19.354;2023-09-08T08:05:52;99762.16;;;23.11;50.92
44697;BME280;57264;47.480;19.354;2023-09-08T08:08:19;99756.16;;;23.34;50.37
44697;BME280;57264;47.480;19.354;2023-09-08T08:10:45;99761.38;;;23.00;50.64
44697;BME280;57264;47.480;19.354;2023-09-08T08:13:10;99765.84;;;23.25;50.77
44697;BME280;57264;47.480;19.354;2023-09-08T08:15:37;99762.75;;;23.57;50.77
44697;BME280;57264;47.480;19.354;2023-09-08T08:18:13;99756.34;;;23.48;48.41
44697;BME280;57264;47.480;19.354;2023-09-08T08:20:39;99750.66;;;23.98;49.02
44697;BME280;57264;47.480;19.354;2023-09-08T08:23:04;99749.59;;;23.55;47.82
44697;BME280;57264;47.480;19.354;2023-09-08T08:27:55;99747.00;;;23.40;46.17
44697;BME280;57264;47.480;19.354;2023-09-08T08:30:23;99750.03;;;23.72;46.21
44697;BME280;57264;47.480;19.354;2023-09-08T08:32:48;99750.16;;;23.52;46.67
44697;BME280;57264;47.480;19.354;2023-09-08T08:35:16;99743.66;;;24.02;46.32
44697;BME280;57264;47.480;19.354;2023-09-08T08:37:42;99742.28;;;24.05;45.36
44697;BME280;57264;47.480;19.354;2023-09-08T08:40:10;99740.91;;;24.65;45.57
44697;BME280;57264;47.480;19.354;2023-09-08T08:42:39;99741.13;;;24.16;44.92
44697;BME280;57264;47.480;19.354;2023-09-08T08:45:05;99742.84;;;24.02;46.10
44697;BME280;57264;47.480;19.354;2023-09-08T08:47:31;99742.00;;;24.06;45.85
44697;BME280;57264;47.480;19.354;2023-09-08T08:49:58;99744.31;;;24.23;45.66
44697;BME280;57264;47.480;19.354;2023-09-08T08:52:25;99749.38;;;24.24;46.61
44697;BME280;57264;47.480;19.354;2023-09-08T08:54:52;99750.50;;;24.18;46.27
44697;BME280;57264;47.480;19.354;2023-09-08T08:57:18;99753.00;;;24.39;46.58
44697;BME280;57264;47.480;19.354;2023-09-08T08:59:45;99744.03;;;23.86;46.66
44697;BME280;57264;47.480;19.354;2023-09-08T09:02:13;99744.38;;;24.94;45.99
44697;BME280;57264;47.480;19.354;2023-09-08T09:04:39;99741.97;;;23.77;44.92
44697;BME280;57264;47.480;19.354;2023-09-08T09:07:06;99751.47;;;24.28;44.92
44697;BME280;57264;47.480;19.354;2023-09-08T09:09:31;99742.16;;;24.73;45.59
44697;BME280;57264;47.480;19.354;2023-09-08T09:11:57;99743.88;;;24.06;45.31
44697;BME280;57264;47.480;19.354;2023-09-08T09:14:22;99741.56;;;24.28;43.90
44697;BME280;57264;47.480;19.354;2023-09-08T09:16:48;99738.69;;;24.96;44.95
44697;BME280;57264;47.480;19.354;2023-09-08T09:19:20;99752.50;;;24.32;44.58
44697;BME280;57264;47.480;19.354;2023-09-08T09:21:51;99743.81;;;24.68;44.30
44697;BME280;57264;47.480;19.354;2023-09-08T09:24:34;99732.91;;;24.84;43.61
44697;BME280;57264;47.480;19.354;2023-09-08T09:27:02;99731.53;;;25.85;44.36
44697;BME280;57264;47.480;19.354;2023-09-08T09:29:30;99735.94;;;25.01;45.19
44697;BME280;57264;47.480;19.354;2023-09-08T09:31:57;99738.31;;;25.26;43.64
44697;BME280;57264;47.480;19.354;2023-09-08T09:34:22;99735.19;;;24.71;43.72
44697;BME280;57264;47.480;19.354;2023-09-08T09:36:48;99738.81;;;24.86;43.77
44697;BME280;57264;47.480;19.354;2023-09-08T09:39:18;99735.09;;;25.05;42.66
44697;BME280;57264;47.480;19.354;2023-09-08T09:41:44;99730.22;;;24.84;42.43
44697;BME280;57264;47.480;19.354;2023-09-08T09:44:10;99739.16;;;25.22;42.65
44697;BME280;57264;47.480;19.354;2023-09-08T09:46:36;99732.88;;;25.31;41.72
44697;BME280;57264;47.480;19.354;2023-09-08T09:49:01;99732.03;;;25.54;40.79
44697;BME280;57264;47.480;19.354;2023-09-08T09:51:28;99722.28;;;25.58;41.84
44697;BME280;57264;47.480;19.354;2023-09-08T09:53:55;99728.34;;;25.27;41.61
44697;BME280;57264;47.480;19.354;2023-09-08T09:56:20;99728.78;;;25.15;42.64
44697;BME280;57264;47.480;19.354;2023-09-08T09:58:47;99720.31;;;25.96;41.92
44697;BME280;57264;47.480;19.354;2023-09-08T10:01:13;99732.44;;;25.43;41.68
44697;BME280;57264;47.480;19.354;2023-09-08T10:03:39;99725.91;;;25.68;41.19
44697;BME280;57264;47.480;19.354;2023-09-08T10:06:05;99725.59;;;25.50;41.48
44697;BME280;57264;47.480;19.354;2023-09-08T10:08:31;99721.47;;;25.58;42.18
44697;BME280;57264;47.480;19.354;2023-09-08T10:11:01;99717.53;;;25.88;41.97
44697;BME280;57264;47.480;19.354;2023-09-08T10:13:31;99728.09;;;25.66;41.96
44697;BME280;57264;47.480;19.354;2023-09-08T10:15:57;99721.72;;;25.94;40.47
44697;BME280;57264;47.480;19.354;2023-09-08T10:18:23;99712.19;;;26.15;39.85
44697;BME280;57264;47.480;19.354;2023-09-08T10:20:51;99713.56;;;25.99;39.42
44697;BME280;57264;47.480;19.354;2023-09-08T10:23:22;99729.44;;;25.82;39.71
44697;BME280;57264;47.480;19.354;2023-09-08T10:25:50;99717.91;;;25.63;39.45
44697;BME280;57264;47.480;19.354;2023-09-08T10:28:20;99714.63;;;25.66;40.37
44697;BME280;57264;47.480;19.354;2023-09-08T10:30:46;99703.16;;;26.25;40.71
44697;BME280;57264;47.480;19.354;2023-09-08T10:33:12;99704.59;;;25.71;40.13
44697;BME280;57264;47.480;19.354;2023-09-08T10:35:38;99708.34;;;25.89;39.34
44697;BME280;57264;47.480;19.354;2023-09-08T10:40:49;99695.34;;;26.09;37.91
44697;BME280;57264;47.480;19.354;2023-09-08T10:43:14;99698.53;;;26.12;35.93
44697;BME280;57264;47.480;19.354;2023-09-08T10:45:41;99701.91;;;26.03;36.15
44697;BME280;57264;47.480;19.354;2023-09-08T10:48:09;99691.41;;;26.34;37.19
44697;BME280;57264;47.480;19.354;2023-09-08T10:50:38;99696.97;;;26.24;37.62
44697;BME280;57264;47.480;19.354;2023-09-08T10:55:50;99684.94;;;26.90;36.02
44697;BME280;57264;47.480;19.354;2023-09-08T11:01:04;99684.66;;;26.91;36.73
44697;BME280;57264;47.480;19.354;2023-09-08T11:06:02;99681.16;;;26.64;36.33
44697;BME280;57264;47.480;19.354;2023-09-08T11:08:28;99675.56;;;26.74;36.51
44697;BME280;57264;47.480;19.354;2023-09-08T11:10:54;99679.75;;;27.29;35.39
44697;BME280;57264;47.480;19.354;2023-09-08T11:13:23;99677.13;;;27.02;36.24
44697;BME280;57264;47.480;19.354;2023-09-08T11:15:52;99682.44;;;26.80;36.19
44697;BME280;57264;47.480;19.354;2023-09-08T11:18:17;99680.25;;;26.27;35.98
44697;BME280;57264;47.480;19.354;2023-09-08T11:20:53;99673.06;;;26.91;35.57
44697;BME280;57264;47.480;19.354;2023-09-08T11:23:19;99675.94;;;26.81;35.67
44697;BME280;57264;47.480;19.354;2023-09-08T11:25:45;99680.84;;;26.65;36.41
44697;BME280;57264;47.480;19.354;2023-09-08T11:28:11;99673.75;;;26.83;36.09
44697;BME280;57264;47.480;19.354;2023-09-08T11:30:36;99674.69;;;26.92;36.62
44697;BME280;57264;47.480;19.354;2023-09-08T11:33:02;99673.78;;;26.42;35.60
44697;BME280;57264;47.480;19.354;2023-09-08T11:35:27;99665.69;;;26.28;35.54
44697;BME280;57264;47.480;19.354;2023-09-08T11:37:53;99664.47;;;26.89;37.11
44697;BME280;57264;47.480;19.354;2023-09-08T11:42:53;99658.78;;;26.77;35.83
44697;BME280;57264;47.480;19.354;2023-09-08T11:45:22;99653.41;;;27.04;34.47
44697;BME280;57264;47.480;19.354;2023-09-08T11:47:48;99664.28;;;26.44;36.68
44697;BME280;57264;47.480;19.354;2023-09-08T11:50:18;99663.28;;;26.95;36.67
44697;BME280;57264;47.480;19.354;2023-09-08T11:52:44;99665.56;;;27.02;35.46
44697;BME280;57264;47.480;19.354;2023-09-08T11:55:11;99663.88;;;26.65;37.09
44697;BME280;57264;47.480;19.354;2023-09-08T11:57:36;99654.94;;;26.56;37.05
44697;BME280;57264;47.480;19.354;2023-09-08T12:00:02;99653.78;;;27.33;37.05
44697;BME280;57264;47.480;19.354;2023-09-08T12:02:34;99653.91;;;26.65;36.42
44697;BME280;57264;47.480;19.354;2023-09-08T12:05:00;99655.94;;;26.60;36.38
44697;BME280;57264;47.480;19.354;2023-09-08T12:07:26;99651.94;;;26.71;37.62
44697;BME280;57264;47.480;19.354;2023-09-08T12:09:51;99639.59;;;26.42;37.97
44697;BME280;57264;47.480;19.354;2023-09-08T12:12:16;99633.44;;;27.27;36.24
44697;BME280;57264;47.480;19.354;2023-09-08T12:14:48;99643.00;;;27.33;35.92
44697;BME280;57264;47.480;19.354;2023-09-08T12:17:24;99630.69;;;27.19;35.32
44697;BME280;57264;47.480;19.354;2023-09-08T12:19:51;99631.38;;;26.75;36.17
44697;BME280;57264;47.480;19.354;2023-09-08T12:22:19;99629.53;;;26.97;36.16
44697;BME280;57264;47.480;19.354;2023-09-08T12:27:14;99627.66;;;27.20;36.84
44697;BME280;57264;47.480;19.354;2023-09-08T12:29:39;99623.66;;;27.31;36.35
44697;BME280;57264;47.480;19.354;2023-09-08T12:32:05;99631.25;;;26.93;36.59
44697;BME280;57264;47.480;19.354;2023-09-08T12:34:30;99630.97;;;26.95;36.25
44697;BME280;57264;47.480;19.354;2023-09-08T12:36:56;99630.78;;;26.91;35.56
44697;BME280;57264;47.480;19.354;2023-09-08T12:39:21;99618.13;;;27.14;36.71
44697;BME280;57264;47.480;19.354;2023-09-08T12:41:46;99616.25;;;27.01;35.29
44697;BME280;57264;47.480;19.354;2023-09-08T12:44:12;99613.34;;;27.11;35.73
44697;BME280;57264;47.480;19.354;2023-09-08T12:46:37;99610.88;;;26.51;36.79
44697;BME280;57264;47.480;19.354;2023-09-08T12:49:03;99603.34;;;26.76;35.78
44697;BME280;57264;47.480;19.354;2023-09-08T12:51:29;99610.56;;;27.03;35.21
44697;BME280;57264;47.480;19.354;2023-09-08T12:53:54;99609.81;;;26.75;36.05
44697;BME280;57264;47.480;19.354;2023-09-08T12:56:19;99606.31;;;26.74;35.85
44697;BME280;57264;47.480;19.354;2023-09-08T12:58:45;99607.41;;;27.23;35.67
44697;BME280;57264;47.480;19.354;2023-09-08T13:01:10;99602.53;;;26.89;36.16
44697;BME280;57264;47.480;19.354;2023-09-08T13:03:38;99598.41;;;27.27;35.97
44697;BME280;57264;47.480;19.354;2023-09-08T13:06:04;99595.31;;;27.20;35.24
44697;BME280;57264;47.480;19.354;2023-09-08T13:08:29;99585.06;;;26.73;35.51